^^
Datos históricos de la estación: Murcia-Puente Tocinos
Diario Informe para Julio 5, 2019 Unidades:  Métrico    Ingés   Ambas
Diario Semanal Mensual Anual
  Máxima: Mínima: Promedio:
Temperatura: 23.1 °C 12.6 °C 17.2 °C
Punto de rocio: 12.6 °C 6.1 °C 8.3 °C
Humedad: 90% 37% 58%
Velocidad viento: 15.6km/h 2.2km/h 6.7km/h
Racha viento: 26.2km/h - -
Viento- - Sur
Presión: 1017.9 hPa 1013.5 hPa -
Precipitación: 0.0 mm    
 
 
Tabla de datos para Julio 5, 2019
Hora Temperatura Punto de rocio Presión Viento Velocidad viento Racha viento Humedad Intensidad lluvia(por hora) Nubes
00:04 16.6 °C 7.9 °C 1016.9 hPa SSO 5 km/h 9.7 km/h 56.6% 0.0 mm
00:09 16.6 °C 7.8 °C 1016.9 hPa Sur 5.4 km/h 9.7 km/h 56% 0.0 mm
00:14 16.6 °C 7.8 °C 1016.9 hPa SSO 5.8 km/h 9.7 km/h 56% 0.0 mm
00:19 16.6 °C 7.8 °C 1016.9 hPa SO 5.8 km/h 13 km/h 56.2% 0.0 mm
00:24 16.6 °C 8.1 °C 1016.8 hPa SO 5.8 km/h 12.9 km/h 57% 0.0 mm
00:29 16.6 °C 7.9 °C 1016.8 hPa SSO 6.1 km/h 10 km/h 56.5% 0.0 mm
00:34 16.5 °C 7.8 °C 1016.9 hPa SSO 6.5 km/h 11.1 km/h 56.4% 0.0 mm
00:39 16.4 °C 7.8 °C 1016.9 hPa Sur 7 km/h 11.3 km/h 56.8% 0.0 mm
00:44 16.2 °C 7.7 °C 1016.9 hPa Sur 7.6 km/h 11.3 km/h 57% 0.0 mm
00:49 16.1 °C 7.8 °C 1016.9 hPa SSO 7 km/h 10 km/h 58% 0.0 mm
00:54 15.9 °C 7.8 °C 1016.6 hPa SSO 6.5 km/h 11.1 km/h 58.3% 0.0 mm
00:59 15.9 °C 7.9 °C 1016.6 hPa SSO 6.7 km/h 11.3 km/h 59% 0.0 mm
01:04 15.8 °C 8 °C 1016.6 hPa Sur 6.9 km/h 11.3 km/h 59.8% 0.0 mm
01:09 15.8 °C 8.1 °C 1016.5 hPa Sur 6.9 km/h 11.1 km/h 60% 0.0 mm
01:14 15.7 °C 8.1 °C 1016.5 hPa SSE 6.9 km/h 11.3 km/h 60.4% 0.0 mm
01:19 15.7 °C 8.2 °C 1016.5 hPa SSE 7.2 km/h 13.7 km/h 61% 0.0 mm
01:24 15.5 °C 8 °C 1016.5 hPa SSE 7.6 km/h 14.5 km/h 61% 0.0 mm
01:29 15.3 °C 7.8 °C 1016.5 hPa SSE 8.5 km/h 14.8 km/h 60.8% 0.0 mm
01:34 15.2 °C 7.5 °C 1016.5 hPa Sur 9.5 km/h 14.5 km/h 60% 0.0 mm
01:39 15.2 °C 7.5 °C 1016.4 hPa Sur 9.1 km/h 14.5 km/h 60% 0.0 mm
01:44 15.3 °C 7.5 °C 1016.4 hPa Sur 8.7 km/h 11.3 km/h 60% 0.0 mm
01:49 15.3 °C 7.6 °C 1016.5 hPa SSO 7.7 km/h 11.3 km/h 60% 0.0 mm
01:54 15.4 °C 7.8 °C 1016.5 hPa SSO 6.5 km/h 8 km/h 60.5% 0.0 mm
01:59 15.5 °C 7.8 °C 1016.5 hPa SSO 5.4 km/h 8 km/h 60% 0.0 mm
02:04 15.6 °C 7.8 °C 1016.6 hPa SSO 4.6 km/h 8 km/h 60% 0.0 mm
02:09 15.6 °C 7.8 °C 1016.6 hPa SSO 3.8 km/h 8 km/h 59.8% 0.0 mm
02:14 15.6 °C 7.8 °C 1016.6 hPa SSO 2.9 km/h 7.4 km/h 60% 0.0 mm
02:19 15.6 °C 8 °C 1016.6 hPa SSO 3.1 km/h 9.3 km/h 60.6% 0.0 mm
02:24 15.8 °C 8 °C 1016.6 hPa SSO 3.2 km/h 10 km/h 60% 0.0 mm
02:29 15.9 °C 8.1 °C 1016.6 hPa SO 5.1 km/h 11.1 km/h 59.6% 0.0 mm
02:34 16.1 °C 8 °C 1016.6 hPa SO 6.9 km/h 13 km/h 59% 0.0 mm
02:39 16.2 °C 8.1 °C 1016.6 hPa SO 7.6 km/h 14.8 km/h 58.7% 0.0 mm
02:44 16.2 °C 7.9 °C 1016.6 hPa SO 8.4 km/h 14.5 km/h 58% 0.0 mm
02:49 16.2 °C 7.9 °C 1016.6 hPa SO 8.4 km/h 13 km/h 58% 0.0 mm
02:54 16.2 °C 7.9 °C 1016.6 hPa SO 8.4 km/h 13 km/h 58% 0.0 mm
02:59 16.2 °C 7.9 °C 1016.6 hPa SO 7.9 km/h 13 km/h 58% 0.0 mm
03:04 16.2 °C 7.9 °C 1016.6 hPa SO 7.6 km/h 11.9 km/h 58% 0.0 mm
03:09 16.2 °C 8 °C 1016.4 hPa SO 8 km/h 13 km/h 58% 0.0 mm
03:14 16.3 °C 8 °C 1016.4 hPa SO 8.4 km/h 13 km/h 58% 0.0 mm
03:19 16.3 °C 8 °C 1016.4 hPa SO 8.4 km/h 12.9 km/h 58% 0.0 mm
03:24 16.3 °C 8 °C 1016.4 hPa SO 8.4 km/h 11.3 km/h 58% 0.0 mm
03:29 16.3 °C 8 °C 1016.4 hPa SO 7.7 km/h 11.3 km/h 58% 0.0 mm
03:34 16.3 °C 8 °C 1016.4 hPa SO 6.9 km/h 11.3 km/h 58% 0.0 mm
03:39 16.2 °C 8 °C 1016.2 hPa SSO 6.9 km/h 11.3 km/h 58% 0.0 mm
03:44 16.2 °C 8 °C 1016.2 hPa SO 6.9 km/h 11.9 km/h 58% 0.0 mm
03:49 16.2 °C 8 °C 1016.2 hPa SO 7.2 km/h 11.3 km/h 58% 0.0 mm
03:54 16.2 °C 7.9 °C 1016.2 hPa SO 7.6 km/h 11.3 km/h 58% 0.0 mm
03:59 16.2 °C 7.9 °C 1016.2 hPa SO 7.2 km/h 11.3 km/h 58% 0.0 mm
04:04 16.1 °C 7.8 °C 1016.2 hPa SO 6.9 km/h 11.3 km/h 58% 0.0 mm
04:09 16.1 °C 7.8 °C 1016.2 hPa SO 6.9 km/h 11.3 km/h 58% 0.0 mm
04:14 15.9 °C 7.7 °C 1016.2 hPa SSO 6.9 km/h 11.3 km/h 58.1% 0.0 mm
04:19 15.8 °C 7.8 °C 1016.2 hPa SO 6.9 km/h 11.9 km/h 59% 0.0 mm
04:24 15.7 °C 7.7 °C 1016.2 hPa SO 6.9 km/h 11.3 km/h 59.2% 0.0 mm
04:29 15.5 °C 7.8 °C 1016.2 hPa SO 6.9 km/h 11.3 km/h 60% 0.0 mm
04:34 15.3 °C 7.6 °C 1016.2 hPa SO 6.9 km/h 11.3 km/h 60% 0.0 mm
04:39 15.3 °C 7.6 °C 1016.1 hPa SO 6.7 km/h 9.7 km/h 60% 0.0 mm
04:44 15.3 °C 7.5 °C 1016.1 hPa SO 6.5 km/h 11.1 km/h 60% 0.0 mm
04:49 15.2 °C 7.5 °C 1016.1 hPa SO 6.5 km/h 12.2 km/h 60% 0.0 mm
04:54 15.2 °C 7.5 °C 1016.1 hPa SSO 6.5 km/h 13 km/h 60% 0.0 mm
04:59 15.2 °C 7.5 °C 1016.1 hPa SO 7.1 km/h 12.9 km/h 60% 0.0 mm
05:04 15.2 °C 7.5 °C 1016.1 hPa SO 7.6 km/h 11.9 km/h 60% 0.0 mm
05:09 15.2 °C 7.5 °C 1016.1 hPa SO 7 km/h 11.3 km/h 60% 0.0 mm
05:14 15.2 °C 7.5 °C 1016.1 hPa SSO 6.5 km/h 9.7 km/h 60% 0.0 mm
05:19 15.2 °C 7.5 °C 1016.2 hPa SSO 5.8 km/h 9.7 km/h 60% 0.0 mm
05:24 15.2 °C 7.3 °C 1016.2 hPa SO 5 km/h 9.7 km/h 59.5% 0.0 mm
05:29 15.1 °C 7.2 °C 1016.2 hPa SSO 5 km/h 8 km/h 59.1% 0.0 mm
05:34 15 °C 7.3 °C 1016.2 hPa Sur 5 km/h 8 km/h 60% 0.0 mm
05:39 14.9 °C 7.2 °C 1016.2 hPa Sur 4.8 km/h 8.4 km/h 60% 0.0 mm
05:44 14.9 °C 7.2 °C 1016.2 hPa SSO 4.7 km/h 8 km/h 60% 0.0 mm
05:49 14.8 °C 7.1 °C 1016.3 hPa SO 4.7 km/h 8.4 km/h 60% 0.0 mm
05:54 14.8 °C 7.2 °C 1016.3 hPa SO 4.6 km/h 8 km/h 60.2% 0.0 mm
05:59 14.7 °C 7.2 °C 1016.3 hPa SO 3.8 km/h 5.6 km/h 60.8% 0.0 mm
06:04 14.4 °C 7 °C 1016.5 hPa SO 3.2 km/h 5.8 km/h 61.1% 0.0 mm
06:09 14.2 °C 7 °C 1016.5 hPa SO 3.1 km/h 6.4 km/h 62.1% 0.0 mm
06:14 13.9 °C 7 °C 1016.5 hPa SSO 2.9 km/h 8.4 km/h 63% 0.0 mm
06:19 13.9 °C 7.1 °C 1016.6 hPa Sur 3.9 km/h 10 km/h 63.4% 0.0 mm
06:24 13.8 °C 6.9 °C 1016.6 hPa Sur 5 km/h 9.7 km/h 63% 0.0 mm
06:29 13.7 °C 6.7 °C 1016.6 hPa SSO 5.7 km/h 9.7 km/h 63% 0.0 mm
06:34 13.5 °C 6.6 °C 1016.6 hPa SSO 6.5 km/h 10 km/h 63% 0.0 mm
06:39 13.4 °C 6.7 °C 1016.6 hPa SSO 6.5 km/h 9.7 km/h 63.8% 0.0 mm
06:44 13.4 °C 6.7 °C 1016.6 hPa Sur 6.5 km/h 10 km/h 64% 0.0 mm
06:49 13.4 °C 6.7 °C 1016.6 hPa Sur 6.7 km/h 11.1 km/h 64% 0.0 mm
06:54 13.3 °C 6.6 °C 1016.6 hPa SSO 6.9 km/h 11.3 km/h 64.1% 0.0 mm
06:59 13.3 °C 6.8 °C 1016.6 hPa SSO 5.7 km/h 9.7 km/h 65% 0.0 mm
07:04 13.2 °C 6.8 °C 1016.7 hPa SSO 4.6 km/h 7.6 km/h 65% 0.0 mm
07:09 13.2 °C 6.8 °C 1016.7 hPa SSO 4.7 km/h 8.4 km/h 65% 0.0 mm
07:14 13.3 °C 6.8 °C 1016.7 hPa OSO 4.7 km/h 9.3 km/h 65% 0.0 mm
07:19 13.3 °C 6.8 °C 1016.7 hPa OSO 4.8 km/h 9.7 km/h 65% 0.0 mm
07:24 13.3 °C 6.8 °C 1016.6 hPa SO 5 km/h 9.7 km/h 65% 0.0 mm
07:29 13.2 °C 6.8 °C 1016.6 hPa SO 5 km/h 8 km/h 64.9% 0.0 mm
07:34 13.1 °C 6.7 °C 1016.9 hPa SO 5 km/h 8 km/h 65% 0.0 mm
07:39 12.9 °C 6.5 °C 1016.9 hPa NE 4.1 km/h 7.4 km/h 65.1% 0.0 mm
07:44 12.9 °C 6.5 °C 1016.9 hPa SSO 3.2 km/h 8 km/h 65% 0.0 mm
07:49 12.9 °C 6.3 °C 1016.9 hPa SSO 3.9 km/h 12.2 km/h 64.4% 0.0 mm
07:54 12.9 °C 6.1 °C 1016.9 hPa SO 4.6 km/h 13 km/h 63% 0.0 mm
07:59 13.1 °C 6.1 °C 1016.9 hPa OSO 5.7 km/h 12.9 km/h 62.9% 0.0 mm
08:04 13.1 °C 6.3 °C 1017.1 hPa NNO 6.5 km/h 11.3 km/h 63.2% 0.0 mm
08:09 12.9 °C 6.3 °C 1017.1 hPa North 5.6 km/h 8 km/h 64.2% 0.0 mm
08:14 12.7 °C 6.4 °C 1017.1 hPa NNO 4.7 km/h 8 km/h 65.5% 0.0 mm
08:19 12.6 °C 6.3 °C 1017.4 hPa ONO 4 km/h 7.4 km/h 65.7% 0.0 mm
08:24 12.7 °C 6.2 °C 1017.4 hPa OSO 3.2 km/h 10 km/h 65% 0.0 mm
08:29 12.9 °C 6.1 °C 1017.4 hPa SSO 4.5 km/h 11.9 km/h 63.6% 0.0 mm
08:34 13.2 °C 6.1 °C 1017.6 hPa SSO 5.8 km/h 11.9 km/h 62.3% 0.0 mm
08:39 13.4 °C 6.3 °C 1017.6 hPa Sur 7 km/h 11.9 km/h 62% 0.0 mm
08:44 13.4 °C 6.2 °C 1017.6 hPa SSO 8.4 km/h 11.3 km/h 61.8% 0.0 mm
08:49 13.6 °C 6.2 °C 1017.7 hPa Sur 7.7 km/h 11.3 km/h 61.1% 0.0 mm
08:54 13.5 °C 6.2 °C 1017.7 hPa SSE 6.9 km/h 13 km/h 61% 0.0 mm
08:59 13.6 °C 6.3 °C 1017.7 hPa SSE 7.8 km/h 12.9 km/h 61.3% 0.0 mm
09:04 13.6 °C 6.4 °C 1017.9 hPa Sur 8.4 km/h 10 km/h 61.8% 0.0 mm
09:09 13.7 °C 6.4 °C 1017.9 hPa Sur 6.7 km/h 9.7 km/h 61% 0.0 mm
09:14 14 °C 6.5 °C 1017.9 hPa Sur 5 km/h 8 km/h 60.8% 0.0 mm
09:19 14.2 °C 6.6 °C 1017.9 hPa SE 4.2 km/h 8.4 km/h 60.4% 0.0 mm
09:24 14.3 °C 6.9 °C 1017.9 hPa SE 3.2 km/h 8.7 km/h 60.9% 0.0 mm
09:29 14.4 °C 6.8 °C 1017.9 hPa SE 4.1 km/h 9.3 km/h 60.4% 0.0 mm
09:34 14.4 °C 6.8 °C 1017.9 hPa SE 5 km/h 9.7 km/h 60.4% 0.0 mm
09:39 14.3 °C 6.9 °C 1017.9 hPa SE 5.7 km/h 11.1 km/h 61% 0.0 mm
09:44 14.3 °C 7 °C 1017.9 hPa SE 6.5 km/h 11.3 km/h 61.5% 0.0 mm
09:49 14.3 °C 7 °C 1017.9 hPa SE 6.2 km/h 9.3 km/h 61.8% 0.0 mm
09:54 14.2 °C 7.2 °C 1017.8 hPa SE 5.8 km/h 9.7 km/h 62.5% 0.0 mm
09:59 14.3 °C 7.1 °C 1017.8 hPa Sur 5.8 km/h 9.7 km/h 62.1% 0.0 mm
10:04 14.3 °C 7.2 °C 1017.8 hPa Sur 5.8 km/h 8 km/h 62% 0.0 mm
10:09 14.5 °C 7.2 °C 1017.8 hPa Sur 4.1 km/h 5.8 km/h 61.6% 0.0 mm
10:14 14.7 °C 7 °C 1017.8 hPa SSO 2.2 km/h 7.6 km/h 60% 0.0 mm
10:19 14.8 °C 6.9 °C 1017.9 hPa OSO 3 km/h 8 km/h 59.2% 0.0 mm
10:24 15 °C 7.1 °C 1017.9 hPa Oeste 3.9 km/h 8 km/h 59.2% 0.0 mm
10:29 15.2 °C 7.2 °C 1017.9 hPa ONO 3.9 km/h 8 km/h 59.1% 0.0 mm
10:34 15.2 °C 7.5 °C 1017.9 hPa ONO 3.9 km/h 8 km/h 59.9% 0.0 mm
10:39 15.3 °C 7.6 °C 1017.8 hPa ONO 3.4 km/h 8.4 km/h 59.8% 0.0 mm
10:44 15.4 °C 7.9 °C 1017.8 hPa SSE 2.9 km/h 8.4 km/h 60.7% 0.0 mm
10:49 15.6 °C 8.1 °C 1017.9 hPa Sur 3.8 km/h 8 km/h 61% 0.0 mm
10:54 15.6 °C 8 °C 1017.9 hPa SSE 4.6 km/h 10 km/h 60.4% 0.0 mm
10:59 15.6 °C 8.2 °C 1017.9 hPa SSE 5.6 km/h 10 km/h 61.5% 0.0 mm
11:04 15.6 °C 8.4 °C 1017.9 hPa SSE 6.5 km/h 11.1 km/h 62.2% 0.0 mm
11:09 15.7 °C 8.5 °C 1017.9 hPa SSE 6.1 km/h 11.3 km/h 62.1% 0.0 mm
11:14 15.8 °C 8.2 °C 1017.9 hPa SSE 5.8 km/h 11.1 km/h 60.6% 0.0 mm
11:19 15.8 °C 8.1 °C 1017.9 hPa Sur 6.6 km/h 11.3 km/h 60.1% 0.0 mm
11:24 15.9 °C 8.4 °C 1017.8 hPa Sur 7.6 km/h 11.3 km/h 61.2% 0.0 mm
11:29 15.9 °C 8.4 °C 1017.8 hPa SSE 7 km/h 9.7 km/h 61% 0.0 mm
11:34 15.9 °C 8.4 °C 1017.8 hPa SSE 6.5 km/h 10 km/h 61% 0.0 mm
11:39 16 °C 8.5 °C 1017.7 hPa SE 6.2 km/h 9.7 km/h 61% 0.0 mm
11:44 16.2 °C 8.5 °C 1017.7 hPa SE 5.8 km/h 9.7 km/h 60.2% 0.0 mm
11:49 16.4 °C 8.5 °C 1017.8 hPa SSE 5.2 km/h 9.7 km/h 59.3% 0.0 mm
11:54 16.7 °C 8.3 °C 1017.8 hPa SE 4.7 km/h 8 km/h 57.7% 0.0 mm
11:59 17.1 °C 8.2 °C 1017.8 hPa SSO 4.2 km/h 7.6 km/h 55.7% 0.0 mm
12:04 17.3 °C 7.9 °C 1017.8 hPa SO 3.9 km/h 8 km/h 54% 0.0 mm
12:09 17.6 °C 8.2 °C 1017.5 hPa SSE 3.9 km/h 8 km/h 54% 0.0 mm
12:14 18.1 °C 8.1 °C 1017.5 hPa SE 3.9 km/h 9.5 km/h 52% 0.0 mm
12:19 18.5 °C 8 °C 1017.5 hPa Sur 3.9 km/h 9.7 km/h 50.4% 0.0 mm
12:24 18.7 °C 7.7 °C 1017.3 hPa SSO 3.9 km/h 9.7 km/h 49% 0.0 mm
12:29 18.9 °C 7.7 °C 1017.3 hPa OSO 3.4 km/h 8 km/h 48.4% 0.0 mm
12:34 19.2 °C 7.8 °C 1017.3 hPa NO 2.9 km/h 8 km/h 47.6% 0.0 mm
12:39 19.6 °C 7.8 °C 1017.2 hPa NO 2.9 km/h 10.3 km/h 46.6% 0.0 mm
12:44 19.9 °C 7.6 °C 1017.2 hPa ONO 2.9 km/h 11.3 km/h 45.1% 0.0 mm
12:49 19.9 °C 7.6 °C 1017.2 hPa NO 3.9 km/h 9.7 km/h 45% 0.0 mm
12:54 20 °C 7.7 °C 1016.8 hPa NO 5 km/h 8 km/h 44.8% 0.0 mm
12:59 20.3 °C 7.5 °C 1016.8 hPa Oeste 3.8 km/h 11.1 km/h 43.7% 0.0 mm
13:04 20.6 °C 7.5 °C 1016.8 hPa Sur 2.9 km/h 11.3 km/h 43% 0.0 mm
13:09 20.7 °C 7.7 °C 1016.6 hPa OSO 4.6 km/h 11.3 km/h 43% 0.0 mm
13:14 20.9 °C 7.7 °C 1016.6 hPa Oeste 6.5 km/h 13.7 km/h 42.6% 0.0 mm
13:19 21.1 °C 7.6 °C 1016.6 hPa Sur 6.2 km/h 14.5 km/h 41.9% 0.0 mm
13:24 21.2 °C 7.5 °C 1016.3 hPa SSE 5.8 km/h 14.8 km/h 41.2% 0.0 mm
13:29 21.3 °C 7.5 °C 1016.3 hPa OSO 5.8 km/h 14.5 km/h 40.9% 0.0 mm
13:34 21.7 °C 7.3 °C 1016.3 hPa SE 5.8 km/h 14 km/h 39.6% 0.0 mm
13:39 22 °C 7.4 °C 1015.8 hPa Sur 6.1 km/h 16.1 km/h 38.8% 0.0 mm
13:44 22.1 °C 7.1 °C 1015.8 hPa Sur 6.5 km/h 16.7 km/h 38% 0.0 mm
13:49 22 °C 7.3 °C 1015.8 hPa ESE 7.4 km/h 14.8 km/h 38.6% 0.0 mm
13:54 21.9 °C 7.3 °C 1015.7 hPa ENE 8.4 km/h 14.5 km/h 39.1% 0.0 mm
13:59 21.9 °C 7.2 °C 1015.7 hPa SSO 6.5 km/h 11.9 km/h 38.6% 0.0 mm
14:04 21.9 °C 6.9 °C 1015.7 hPa OSO 5 km/h 11.3 km/h 38% 0.0 mm
14:09 22 °C 7.1 °C 1015.5 hPa SSO 5.4 km/h 10.3 km/h 38.1% 0.0 mm
14:14 22.1 °C 7.2 °C 1015.5 hPa SSE 5.8 km/h 11.3 km/h 38.1% 0.0 mm
14:19 22.1 °C 7.2 °C 1015.5 hPa Oeste 4.9 km/h 9.7 km/h 38.2% 0.0 mm
14:24 22.2 °C 7.2 °C 1015.2 hPa Oeste 3.9 km/h 8.4 km/h 38% 0.0 mm
14:29 22.2 °C 7.2 °C 1015.2 hPa Oeste 3.5 km/h 8 km/h 37.9% 0.0 mm
14:34 22.2 °C 7.2 °C 1015.2 hPa Oeste 3.2 km/h 9.5 km/h 38% 0.0 mm
14:39 22.2 °C 7.3 °C 1014.9 hPa NNO 4.4 km/h 11.1 km/h 38.3% 0.0 mm
14:44 22.2 °C 7.2 °C 1014.9 hPa North 5.8 km/h 11.3 km/h 38% 0.0 mm
14:49 22.3 °C 7.3 °C 1014.9 hPa North 5.3 km/h 9.7 km/h 38.3% 0.0 mm
14:54 22.3 °C 7.2 °C 1014.6 hPa Oeste 4.6 km/h 13 km/h 37.8% 0.0 mm
14:59 22.3 °C 7.2 °C 1014.6 hPa Oeste 6 km/h 12.9 km/h 37.8% 0.0 mm
15:04 22.4 °C 7.3 °C 1014.6 hPa Oeste 6.9 km/h 11.9 km/h 37.8% 0.0 mm
15:09 22.5 °C 7.1 °C 1014.5 hPa Oeste 6.4 km/h 12.2 km/h 37.1% 0.0 mm
15:14 22.6 °C 7.2 °C 1014.5 hPa OSO 5.8 km/h 13 km/h 37% 0.0 mm
15:19 22.7 °C 7.3 °C 1014.5 hPa SSO 5.8 km/h 11.9 km/h 37% 0.0 mm
15:24 22.7 °C 7.3 °C 1014.4 hPa Sur 5.8 km/h 15.6 km/h 37% 0.0 mm
15:29 22.7 °C 7.3 °C 1014.4 hPa ESE 6.6 km/h 16.1 km/h 37% 0.0 mm
15:34 22.7 °C 7.2 °C 1014.4 hPa ENE 7.6 km/h 11.3 km/h 37% 0.0 mm
15:39 22.6 °C 7.3 °C 1014.3 hPa NE 6.2 km/h 9.7 km/h 37.3% 0.0 mm
15:44 22.7 °C 7.3 °C 1014.3 hPa NE 4.6 km/h 4.8 km/h 37.1% 0.0 mm
15:49 22.8 °C 7.4 °C 1014.3 hPa Este 3.8 km/h 8.4 km/h 37% 0.0 mm
15:54 23.1 °C 7.6 °C 1014.2 hPa SSE 2.9 km/h 13.7 km/h 37% 0.0 mm
15:59 22.9 °C 8.3 °C 1014.2 hPa SSE 5.5 km/h 19 km/h 39.2% 0.0 mm
16:04 22.8 °C 8.7 °C 1014.2 hPa SSO 7.6 km/h 19.3 km/h 40.6% 0.0 mm
16:09 22.8 °C 8.8 °C 1014.1 hPa Sur 8.9 km/h 19.3 km/h 40.7% 0.0 mm
16:14 22.7 °C 8.8 °C 1014.1 hPa SSE 10.3 km/h 19.3 km/h 41% 0.0 mm
16:19 22.5 °C 8.4 °C 1014.1 hPa Sur 11.2 km/h 22.5 km/h 40.4% 0.0 mm
16:24 22.3 °C 8.5 °C 1014.0 hPa Sur 12.2 km/h 22.5 km/h 41% 0.0 mm
16:29 22.3 °C 8.2 °C 1014.0 hPa Sur 12.6 km/h 22.5 km/h 40.4% 0.0 mm
16:34 22.4 °C 8.1 °C 1014.0 hPa Sur 13 km/h 22.5 km/h 40% 0.0 mm
16:39 22.3 °C 8.4 °C 1014.0 hPa Sur 14.2 km/h 26.2 km/h 41% 0.0 mm
16:44 22.2 °C 8.4 °C 1014.0 hPa Sur 15.6 km/h 25.9 km/h 41% 0.0 mm
16:49 22.2 °C 8.3 °C 1014.0 hPa SSE 15.6 km/h 25.7 km/h 41% 0.0 mm
16:54 22.3 °C 8.3 °C 1013.9 hPa SSE 15.6 km/h 24.1 km/h 40.6% 0.0 mm
16:59 22.6 °C 8.3 °C 1013.9 hPa SSE 13.5 km/h 20.9 km/h 40% 0.0 mm
17:04 22.6 °C 8.3 °C 1013.9 hPa SSE 11.9 km/h 23.3 km/h 40% 0.0 mm
17:09 22.5 °C 8.2 °C 1013.7 hPa SSE 13.3 km/h 24.5 km/h 40% 0.0 mm
17:14 22.4 °C 8.5 °C 1013.7 hPa SSE 14.8 km/h 24.1 km/h 41.1% 0.0 mm
17:19 22.4 °C 8.8 °C 1013.7 hPa SE 14.3 km/h 20.9 km/h 41.8% 0.0 mm
17:24 22.4 °C 8.5 °C 1013.7 hPa Sur 13.7 km/h 19.3 km/h 40.8% 0.0 mm
17:29 22.4 °C 8 °C 1013.7 hPa SSE 12.1 km/h 18.5 km/h 39.8% 0.0 mm
17:34 22.3 °C 8.4 °C 1013.7 hPa SE 10.3 km/h 20.4 km/h 40.8% 0.0 mm
17:39 22.2 °C 8.6 °C 1013.7 hPa SE 11.2 km/h 20.9 km/h 41.7% 0.0 mm
17:44 22 °C 9.1 °C 1013.7 hPa ESE 12.2 km/h 20.9 km/h 43.8% 0.0 mm
17:49 21.8 °C 9.1 °C 1013.7 hPa ESE 12.1 km/h 20.9 km/h 44.2% 0.0 mm
17:54 21.8 °C 9 °C 1013.6 hPa SE 11.9 km/h 20.4 km/h 44% 0.0 mm
17:59 21.8 °C 8.8 °C 1013.6 hPa SE 11 km/h 20.9 km/h 43.6% 0.0 mm
18:04 21.7 °C 8.6 °C 1013.6 hPa ESE 10.3 km/h 17.2 km/h 43.1% 0.0 mm
18:09 21.8 °C 8.5 °C 1013.6 hPa SE 10.7 km/h 17.7 km/h 42.6% 0.0 mm
18:14 21.7 °C 8.5 °C 1013.6 hPa SE 11.1 km/h 22.2 km/h 42.8% 0.0 mm
18:19 21.7 °C 8.5 °C 1013.6 hPa SE 11.6 km/h 22.5 km/h 43% 0.0 mm
18:24 21.6 °C 8.6 °C 1013.5 hPa SE 12.2 km/h 19 km/h 43.5% 0.0 mm
18:29 21.4 °C 8.6 °C 1013.5 hPa SE 11.7 km/h 19.3 km/h 44% 0.0 mm
18:34 21.3 °C 8.6 °C 1013.6 hPa SE 11.1 km/h 22.2 km/h 44.3% 0.0 mm
18:39 21 °C 8.6 °C 1013.6 hPa SE 11.5 km/h 22.5 km/h 45% 0.0 mm
18:44 20.8 °C 8.5 °C 1013.6 hPa SE 11.9 km/h 19.3 km/h 45% 0.0 mm
18:49 20.8 °C 8.6 °C 1013.7 hPa SE 11 km/h 16.1 km/h 45.7% 0.0 mm
18:54 20.7 °C 8.6 °C 1013.7 hPa SE 10 km/h 14.5 km/h 46% 0.0 mm
18:59 20.5 °C 8.5 °C 1013.7 hPa SE 8 km/h 10 km/h 46% 0.0 mm
19:04 20.4 °C 8.4 °C 1013.7 hPa SE 6.5 km/h 11.9 km/h 46% 0.0 mm
19:09 20.3 °C 8.3 °C 1013.7 hPa SE 6.7 km/h 13 km/h 46% 0.0 mm
19:14 20.2 °C 8.2 °C 1013.7 hPa SSE 6.9 km/h 13 km/h 46% 0.0 mm
19:19 20.1 °C 8.1 °C 1013.8 hPa SE 7.2 km/h 12.9 km/h 46% 0.0 mm
19:24 20 °C 8.3 °C 1013.8 hPa ESE 7.6 km/h 13 km/h 46.8% 0.0 mm
19:29 19.8 °C 8.2 °C 1013.8 hPa SE 7.3 km/h 13 km/h 47% 0.0 mm
19:34 19.7 °C 8.1 °C 1014.0 hPa SE 6.9 km/h 14.8 km/h 47.3% 0.0 mm
19:39 19.5 °C 8.2 °C 1014.0 hPa SE 7.2 km/h 14.5 km/h 48% 0.0 mm
19:44 19.3 °C 8.2 °C 1014.0 hPa ESE 7.6 km/h 9.7 km/h 48.7% 0.0 mm
19:49 19.2 °C 8.2 °C 1014.0 hPa Este 6.2 km/h 9.7 km/h 49% 0.0 mm
19:54 19.1 °C 8.3 °C 1014.0 hPa ENE 4.6 km/h 8.4 km/h 49.5% 0.0 mm
19:59 18.9 °C 8.5 °C 1014.0 hPa NNE 4.8 km/h 15.6 km/h 51% 0.0 mm
20:04 18.5 °C 8.8 °C 1014.4 hPa NE 5 km/h 16.1 km/h 53% 0.0 mm
20:09 18.5 °C 8.8 °C 1014.4 hPa NE 7.3 km/h 19.3 km/h 53% 0.0 mm
20:14 18.7 °C 8.9 °C 1014.4 hPa ENE 10 km/h 19.3 km/h 53% 0.0 mm
20:19 18.7 °C 8.9 °C 1014.5 hPa ENE 7.6 km/h 11.3 km/h 53% 0.0 mm
20:24 18.7 °C 9 °C 1014.5 hPa North 5 km/h 13 km/h 53% 0.0 mm
20:29 18.5 °C 9.7 °C 1014.5 hPa NNE 6.2 km/h 17.2 km/h 56.4% 0.0 mm
20:34 18.2 °C 10 °C 1014.8 hPa NNE 7.6 km/h 17.7 km/h 58.9% 0.0 mm
20:39 17.8 °C 10.6 °C 1014.8 hPa North 7 km/h 13 km/h 62.8% 0.0 mm
20:44 17.4 °C 11.1 °C 1014.8 hPa NO 6.5 km/h 12.9 km/h 66.2% 0.0 mm
20:49 17.1 °C 11.3 °C 1014.9 hPa NNO 6.2 km/h 11.3 km/h 68.8% 0.0 mm
20:54 16.8 °C 11.5 °C 1014.9 hPa NNO 5.8 km/h 11.3 km/h 70.9% 0.0 mm
20:59 16.6 °C 11.6 °C 1014.9 hPa NNO 6.1 km/h 11.3 km/h 72.6% 0.0 mm
21:04 16.4 °C 11.8 °C 1014.9 hPa NNE 6.5 km/h 13 km/h 74.2% 0.0 mm
21:09 16.3 °C 12 °C 1014.8 hPa North 6.2 km/h 13.7 km/h 75.7% 0.0 mm
21:14 16.1 °C 12.2 °C 1014.8 hPa NNE 5.8 km/h 14.5 km/h 77.5% 0.0 mm
21:19 15.9 °C 12.3 °C 1014.9 hPa NNE 7.1 km/h 14.8 km/h 78.9% 0.0 mm
21:24 15.8 °C 12.3 °C 1014.9 hPa NNE 8.7 km/h 14.5 km/h 80% 0.0 mm
21:29 15.7 °C 12.4 °C 1014.9 hPa NE 7.9 km/h 11.3 km/h 80.7% 0.0 mm
21:34 15.6 °C 12.4 °C 1014.9 hPa NNE 6.9 km/h 13.7 km/h 81% 0.0 mm
21:39 15.5 °C 12.4 °C 1014.9 hPa NNE 7.6 km/h 14.5 km/h 81.9% 0.0 mm
21:44 15.3 °C 12.4 °C 1014.9 hPa NNE 8.4 km/h 15.6 km/h 82.3% 0.0 mm
21:49 15.2 °C 12.4 °C 1014.9 hPa NNE 8.5 km/h 16.1 km/h 83.1% 0.0 mm
21:54 15.2 °C 12.5 °C 1014.8 hPa NE 8.7 km/h 14.5 km/h 84% 0.0 mm
21:59 15.1 °C 12.5 °C 1014.8 hPa NNE 8.5 km/h 13 km/h 84.5% 0.0 mm
22:04 15 °C 12.5 °C 1014.9 hPa NE 8.4 km/h 12.9 km/h 85% 0.0 mm
22:09 14.9 °C 12.4 °C 1014.9 hPa NE 7.5 km/h 13 km/h 85% 0.0 mm
22:14 14.8 °C 12.5 °C 1014.9 hPa NNE 6.5 km/h 12.9 km/h 85.5% 0.0 mm
22:19 14.8 °C 12.5 °C 1014.9 hPa NNE 6.7 km/h 13 km/h 86% 0.0 mm
22:24 14.7 °C 12.5 °C 1014.8 hPa NE 6.9 km/h 12.9 km/h 86.8% 0.0 mm
22:29 14.7 °C 12.5 °C 1014.8 hPa NE 6.7 km/h 11.3 km/h 87% 0.0 mm
22:34 14.6 °C 12.6 °C 1014.8 hPa NNE 6.5 km/h 11.3 km/h 88% 0.0 mm
22:39 14.5 °C 12.5 °C 1014.8 hPa NNE 6.5 km/h 9.7 km/h 88% 0.0 mm
22:44 14.4 °C 12.5 °C 1014.8 hPa North 6.5 km/h 11.1 km/h 88.3% 0.0 mm
22:49 14.4 °C 12.6 °C 1014.8 hPa NNE 6.2 km/h 11.3 km/h 89% 0.0 mm
22:54 14.3 °C 12.5 °C 1014.8 hPa NNE 5.8 km/h 10.3 km/h 89% 0.0 mm
22:59 14.3 °C 12.6 °C 1014.8 hPa North 6.1 km/h 11.9 km/h 89.5% 0.0 mm
23:04 14.3 °C 12.6 °C 1014.8 hPa NNE 6.5 km/h 13.7 km/h 90% 0.0 mm
23:09 14.2 °C 12.6 °C 1014.7 hPa NNE 7 km/h 14.5 km/h 90% 0.0 mm
23:14 14.2 °C 12.6 °C 1014.7 hPa NNE 7.6 km/h 13 km/h 90% 0.0 mm
23:19 14.1 °C 12.5 °C 1014.7 hPa NNE 8.1 km/h 13 km/h 90% 0.0 mm
23:24 14 °C 12.4 °C 1014.7 hPa NNE 8.7 km/h 12.9 km/h 90% 0.0 mm
23:29 13.9 °C 12.3 °C 1014.7 hPa NE 7.9 km/h 11.3 km/h 90% 0.0 mm
23:34 13.9 °C 12.3 °C 1014.7 hPa NE 6.9 km/h 11.1 km/h 90% 0.0 mm
23:39 13.9 °C 12.3 °C 1014.7 hPa NE 6.7 km/h 11.3 km/h 90% 0.0 mm
23:44 13.9 °C 12.3 °C 1014.7 hPa NE 6.5 km/h 11.1 km/h 90% 0.0 mm
23:49 13.9 °C 12.3 °C 1014.7 hPa NNE 6.2 km/h 11.3 km/h 90% 0.0 mm
23:54 13.9 °C 12.3 °C 1014.6 hPa NE 5.8 km/h 9.7 km/h 90% 0.0 mm
23:59 13.8 °C 12.2 °C 1014.6 hPa NE 5.3 km/h 10 km/h 90% 0.0 mm
Murcia-Puente Tocinos, España
Compliments of Weather Underground - 3 mb

La estación de MeteoMurcia.com, publica sus datos en los siguientes proyectos:

Weather Underground PWS IMURCIAP2 Meteoclimatic www.awekas.at

W3Counter
Web Analytics